createdAt,value
2018-01-21T00:00:00.475Z,20.70
2018-01-21T00:02:28.272Z,20.60
2018-01-21T00:04:56.108Z,20.50
2018-01-21T00:07:23.920Z,20.40
2018-01-21T00:09:51.732Z,20.40
2018-01-21T00:12:19.477Z,20.40
2018-01-21T00:14:47.228Z,20.30
2018-01-21T00:17:15.079Z,20.30
2018-01-21T00:19:42.866Z,20.20
2018-01-21T00:22:10.677Z,20.20
2018-01-21T00:24:39.308Z,20.20
2018-01-21T00:27:07.131Z,20.10
2018-01-21T00:29:34.870Z,20.10
2018-01-21T00:32:02.602Z,20.10
2018-01-21T00:34:30.412Z,20.20
2018-01-21T00:36:58.180Z,20.20
2018-01-21T00:39:25.935Z,20.10
2018-01-21T00:41:53.754Z,20.00
2018-01-21T00:44:21.499Z,20.00
2018-01-21T00:46:49.250Z,20.00
2018-01-21T00:49:17.015Z,20.00
2018-01-21T00:51:44.788Z,19.90
2018-01-21T00:54:12.503Z,20.00
2018-01-21T00:56:40.262Z,20.00
2018-01-21T00:59:07.978Z,19.90
2018-01-21T01:01:35.725Z,19.90
2018-01-21T01:04:03.976Z,20.00
2018-01-21T01:06:31.746Z,19.90
2018-01-21T01:08:59.488Z,19.90
2018-01-21T01:11:27.279Z,19.90
2018-01-21T01:13:55.072Z,19.80
2018-01-21T01:16:23.636Z,19.70
2018-01-21T01:18:51.372Z,19.70
2018-01-21T01:21:19.106Z,19.70
2018-01-21T01:23:46.878Z,19.70
2018-01-21T01:26:14.621Z,19.60
2018-01-21T01:28:42.393Z,19.60
2018-01-21T01:31:11.000Z,19.60
2018-01-21T01:33:38.799Z,19.60
2018-01-21T01:36:06.600Z,19.60
2018-01-21T01:38:34.424Z,19.60
2018-01-21T01:41:02.258Z,19.60
2018-01-21T01:43:29.999Z,19.60
2018-01-21T01:45:57.876Z,19.50
2018-01-21T01:48:26.404Z,19.50
2018-01-21T01:50:54.155Z,19.50
2018-01-21T01:53:21.969Z,19.50
2018-01-21T01:55:49.785Z,19.50
2018-01-21T01:58:17.583Z,19.50
2018-01-21T02:00:45.363Z,19.30
2018-01-21T02:03:13.179Z,19.20
2018-01-21T02:05:41.794Z,19.30
2018-01-21T02:08:09.520Z,19.30
2018-01-21T02:10:37.354Z,19.30
2018-01-21T02:13:05.166Z,19.30
2018-01-21T02:15:32.968Z,19.30
2018-01-21T02:18:00.773Z,19.30
2018-01-21T02:20:28.537Z,19.30
2018-01-21T02:22:56.288Z,19.20
2018-01-21T02:25:24.061Z,19.20
2018-01-21T02:27:51.869Z,19.20
2018-01-21T02:30:20.426Z,19.10
2018-01-21T02:32:48.145Z,19.10
2018-01-21T02:35:15.927Z,18.70
2018-01-21T02:37:43.706Z,18.60
2018-01-21T02:40:11.528Z,18.60
2018-01-21T02:42:39.374Z,18.60
2018-01-21T02:45:07.160Z,18.70
2018-01-21T02:47:34.910Z,18.70
2018-01-21T02:50:02.718Z,18.50
2018-01-21T02:52:30.476Z,18.60
2018-01-21T02:54:58.287Z,18.70
2018-01-21T02:57:26.048Z,18.80
2018-01-21T02:59:53.861Z,18.80
2018-01-21T03:02:21.621Z,18.00
2018-01-21T03:04:49.456Z,16.60
2018-01-21T03:07:17.286Z,16.50
2018-01-21T03:09:45.054Z,16.80
2018-01-21T03:12:12.812Z,16.90
2018-01-21T03:14:40.605Z,17.30
2018-01-21T03:17:08.463Z,17.40
2018-01-21T03:19:36.254Z,17.00
2018-01-21T03:22:04.864Z,15.00
2018-01-21T03:24:32.622Z,14.90
2018-01-21T03:27:00.370Z,15.40
2018-01-21T03:29:28.143Z,15.40
2018-01-21T03:31:55.949Z,15.90
2018-01-21T03:34:23.744Z,15.90
2018-01-21T03:36:51.540Z,16.10
2018-01-21T03:39:19.359Z,16.00
2018-01-21T03:41:47.101Z,15.60
2018-01-21T03:44:14.909Z,16.20
2018-01-21T03:46:42.727Z,15.10
2018-01-21T03:49:11.248Z,14.40
2018-01-21T03:51:39.048Z,14.30
2018-01-21T03:54:06.808Z,13.50
2018-01-21T03:56:34.647Z,12.70
2018-01-21T03:59:02.388Z,12.50
2018-01-21T04:01:30.921Z,12.50
2018-01-21T04:03:58.658Z,12.50
2018-01-21T04:06:26.406Z,13.20
2018-01-21T04:08:54.982Z,14.00
2018-01-21T04:11:22.731Z,13.90
2018-01-21T04:13:50.451Z,13.80
2018-01-21T04:16:18.201Z,14.30
2018-01-21T04:18:46.036Z,14.90
2018-01-21T04:21:13.768Z,13.60
2018-01-21T04:23:41.616Z,13.30
2018-01-21T04:26:09.403Z,12.60
2018-01-21T04:28:37.202Z,12.20
2018-01-21T04:31:05.048Z,12.10
2018-01-21T04:33:32.787Z,12.10
2018-01-21T04:36:00.605Z,13.10
2018-01-21T04:38:28.495Z,13.20
2018-01-21T04:40:56.233Z,13.60
2018-01-21T04:43:24.038Z,13.10
2018-01-21T04:45:51.820Z,12.70
2018-01-21T04:48:19.674Z,12.30
2018-01-21T04:50:48.177Z,13.10
2018-01-21T04:53:16.031Z,13.10
2018-01-21T04:55:44.786Z,13.50
2018-01-21T04:58:12.562Z,13.60
2018-01-21T05:00:40.348Z,13.10
2018-01-21T05:03:08.841Z,14.20
2018-01-21T05:05:36.665Z,14.10
2018-01-21T05:08:04.420Z,15.40
2018-01-21T05:10:32.215Z,15.90
2018-01-21T05:12:59.985Z,15.80
2018-01-21T05:15:27.783Z,16.30
2018-01-21T05:17:55.515Z,17.40
2018-01-21T05:20:23.347Z,18.10
2018-01-21T05:22:51.137Z,18.60
2018-01-21T05:25:18.930Z,18.90
2018-01-21T05:27:47.515Z,19.10
2018-01-21T05:30:15.294Z,19.10
2018-01-21T05:32:43.084Z,19.40
2018-01-21T05:35:10.882Z,19.70
2018-01-21T05:37:38.671Z,18.70
2018-01-21T05:40:06.423Z,18.40
2018-01-21T05:42:34.205Z,18.90
2018-01-21T05:45:01.952Z,19.10
2018-01-21T05:47:29.730Z,19.60
2018-01-21T05:49:57.460Z,20.00
2018-01-21T05:52:25.240Z,20.30
2018-01-21T05:54:53.057Z,20.60
2018-01-21T05:57:21.578Z,20.80
2018-01-21T05:59:49.290Z,20.70
2018-01-21T06:02:17.030Z,20.80
2018-01-21T06:04:44.765Z,21.00
2018-01-21T06:07:12.499Z,20.90
2018-01-21T06:09:41.048Z,20.80
2018-01-21T06:12:08.867Z,20.70
2018-01-21T06:14:36.610Z,20.80
2018-01-21T06:17:04.413Z,20.40
2018-01-21T06:19:32.185Z,20.30
2018-01-21T06:21:59.992Z,20.30
2018-01-21T06:24:27.720Z,20.50
2018-01-21T06:26:55.513Z,20.60
2018-01-21T06:29:23.254Z,21.20
2018-01-21T06:31:50.992Z,21.50
2018-01-21T06:34:18.755Z,21.10
2018-01-21T06:36:46.569Z,21.40
2018-01-21T06:39:14.382Z,21.60
2018-01-21T06:41:42.886Z,21.90
2018-01-21T06:44:10.723Z,21.80
2018-01-21T06:46:38.468Z,21.60
2018-01-21T06:49:06.278Z,21.10
2018-01-21T06:51:34.064Z,19.80
2018-01-21T06:54:01.889Z,19.80
2018-01-21T06:56:29.643Z,19.00
2018-01-21T06:58:57.422Z,19.00
2018-01-21T07:01:25.164Z,19.20
2018-01-21T07:03:52.890Z,19.30
2018-01-21T07:06:20.634Z,20.10
2018-01-21T07:08:48.355Z,21.10
2018-01-21T07:11:16.190Z,21.50
2018-01-21T07:13:43.971Z,21.70
2018-01-21T07:16:11.787Z,21.90
2018-01-21T07:18:39.562Z,22.00
2018-01-21T07:21:07.287Z,22.10
2018-01-21T07:23:35.066Z,22.10
2018-01-21T07:26:02.814Z,22.20
2018-01-21T07:28:30.616Z,22.30
2018-01-21T07:30:58.405Z,22.30
2018-01-21T07:33:26.977Z,22.30
2018-01-21T07:35:54.710Z,22.30
2018-01-21T07:38:22.444Z,22.30
2018-01-21T07:40:50.255Z,22.40
2018-01-21T07:43:18.005Z,22.20
2018-01-21T07:45:45.727Z,22.10
2018-01-21T07:48:14.261Z,22.40
2018-01-21T07:50:42.004Z,22.40
2018-01-21T07:53:10.035Z,22.50
2018-01-21T07:55:37.848Z,22.40
2018-01-21T07:58:05.610Z,22.30
2018-01-21T08:00:33.414Z,22.40
2018-01-21T08:03:01.187Z,22.60
2018-01-21T08:05:28.984Z,22.60
2018-01-21T08:07:57.474Z,21.60
2018-01-21T08:10:25.301Z,21.60
2018-01-21T08:12:53.103Z,20.20
2018-01-21T08:15:20.843Z,20.20
2018-01-21T08:17:48.655Z,19.00
2018-01-21T08:20:22.565Z,19.10
2018-01-21T08:23:00.165Z,19.60
2018-01-21T08:25:39.660Z,19.10
2018-01-21T08:28:08.832Z,18.90
2018-01-21T08:30:37.708Z,19.80
2018-01-21T08:33:07.100Z,19.40
2018-01-21T08:48:59.333Z,17.00
2018-01-21T08:51:27.247Z,17.00
2018-01-21T08:53:55.156Z,16.70
2018-01-21T08:56:23.085Z,15.40
2018-01-21T08:58:51.106Z,15.40
2018-01-21T09:01:18.974Z,14.60
2018-01-21T09:03:46.942Z,13.50
2018-01-21T09:06:14.760Z,13.90
2018-01-21T09:08:42.811Z,14.20
2018-01-21T09:11:10.748Z,15.00
2018-01-21T09:13:38.607Z,15.70
2018-01-21T09:16:06.473Z,15.80
2018-01-21T09:18:34.749Z,16.20
2018-01-21T09:21:02.615Z,15.20
2018-01-21T09:23:30.487Z,15.20
2018-01-21T09:25:58.341Z,14.60
2018-01-21T09:28:26.398Z,15.30
2018-01-21T09:30:55.635Z,16.00
2018-01-21T09:33:23.479Z,15.70
2018-01-21T09:35:51.355Z,16.10
2018-01-21T09:38:20.119Z,16.60
2018-01-21T09:40:49.443Z,16.00
2018-01-21T09:43:18.718Z,14.90
2018-01-21T09:45:48.370Z,14.30
2018-01-21T09:48:18.393Z,14.30
2018-01-21T09:50:48.665Z,14.10
2018-01-21T09:53:18.278Z,14.10
2018-01-21T09:55:47.982Z,14.30
2018-01-21T09:58:17.412Z,14.40
2018-01-21T10:00:47.180Z,13.70
2018-01-21T10:03:16.783Z,15.20
2018-01-21T10:05:46.840Z,14.20
2018-01-21T10:08:16.140Z,13.40
2018-01-21T10:10:46.130Z,14.20
2018-01-21T10:13:17.015Z,14.50
2018-01-21T10:15:44.961Z,14.90
2018-01-21T10:18:14.433Z,15.80
2018-01-21T10:20:42.329Z,15.50
2018-01-21T10:23:10.198Z,15.90
2018-01-21T10:25:38.891Z,15.10
2018-01-21T10:28:06.750Z,15.10
2018-01-21T10:30:34.626Z,15.30
2018-01-21T10:33:02.496Z,15.80
2018-01-21T10:35:30.350Z,16.10
2018-01-21T10:37:58.412Z,15.40
2018-01-21T10:40:27.668Z,15.30
2018-01-21T10:42:57.410Z,14.20
2018-01-21T10:45:25.308Z,15.40
2018-01-21T10:47:54.652Z,16.00
2018-01-21T10:50:22.567Z,15.90
2018-01-21T10:52:50.439Z,15.60
2018-01-21T10:55:18.410Z,15.40
2018-01-21T10:57:46.481Z,16.30
2018-01-21T11:00:14.755Z,17.00
2018-01-21T11:02:42.729Z,17.10
2018-01-21T11:05:12.643Z,16.60
2018-01-21T11:07:40.702Z,17.20
2018-01-21T11:10:08.683Z,16.70
2018-01-21T11:12:36.954Z,16.40
2018-01-21T11:15:04.915Z,16.50
2018-01-21T11:17:32.927Z,16.30
2018-01-21T11:20:00.867Z,16.80
2018-01-21T11:22:28.831Z,17.10
2018-01-21T11:38:58.637Z,16.90
2018-01-21T11:41:26.500Z,16.80
2018-01-21T11:43:54.469Z,16.20
2018-01-21T11:46:22.446Z,16.30
2018-01-21T11:48:50.309Z,16.70
2018-01-21T11:51:18.174Z,16.60
2018-01-21T11:53:46.046Z,17.00
2018-01-21T11:56:14.014Z,16.60
2018-01-21T11:58:41.954Z,16.70
2018-01-21T12:01:13.963Z,16.70
2018-01-21T12:03:42.627Z,16.70
2018-01-21T12:06:14.237Z,16.70
2018-01-21T12:08:46.750Z,17.60
2018-01-21T12:11:14.717Z,17.50
2018-01-21T12:13:42.585Z,17.20
2018-01-21T12:16:10.452Z,17.00
2018-01-21T12:18:38.320Z,17.10
2018-01-21T12:21:06.501Z,17.40
2018-01-21T12:23:34.366Z,17.40
2018-01-21T12:26:02.231Z,17.40
2018-01-21T12:28:30.296Z,17.40
2018-01-21T12:31:02.220Z,16.60
2018-01-21T12:33:30.337Z,16.10
2018-01-21T12:35:58.204Z,15.50
2018-01-21T12:38:26.063Z,16.00
2018-01-21T12:40:53.976Z,16.50
2018-01-21T12:43:22.394Z,16.00
2018-01-21T12:45:50.287Z,15.10
2018-01-21T12:48:19.680Z,15.50
2018-01-21T12:50:47.554Z,15.50
2018-01-21T12:53:18.856Z,16.20
2018-01-21T12:55:46.773Z,16.50
2018-01-21T12:58:14.627Z,16.30
2018-01-21T13:00:42.602Z,16.60
2018-01-21T13:03:10.928Z,16.80
2018-01-21T13:05:38.954Z,17.20
2018-01-21T13:08:06.918Z,17.70
2018-01-21T13:10:34.713Z,16.90
2018-01-21T13:13:03.363Z,16.80
2018-01-21T13:15:31.440Z,16.70
2018-01-21T13:17:59.298Z,16.90
2018-01-21T13:20:28.159Z,17.20
2018-01-21T13:22:56.166Z,16.40
2018-01-21T13:25:24.843Z,16.30
2018-01-21T13:27:52.721Z,16.10
2018-01-21T13:30:21.307Z,15.90
2018-01-21T13:32:52.801Z,16.60
2018-01-21T13:35:21.805Z,17.00
2018-01-21T13:37:49.817Z,17.70
2018-01-21T13:40:17.675Z,18.40
2018-01-21T13:42:45.747Z,18.20
2018-01-21T13:45:13.730Z,17.30
2018-01-21T13:47:41.486Z,17.50
2018-01-21T13:50:09.565Z,16.90
2018-01-21T13:52:38.038Z,16.70
2018-01-21T13:55:07.432Z,17.80
2018-01-21T13:57:35.810Z,17.80
2018-01-21T14:00:04.095Z,18.00
2018-01-21T14:02:32.373Z,18.30
2018-01-21T14:05:00.183Z,17.80
2018-01-21T14:07:28.096Z,17.30
2018-01-21T14:09:55.967Z,17.30
2018-01-21T14:12:24.147Z,17.60
2018-01-21T14:14:52.208Z,17.80
2018-01-21T14:17:20.188Z,18.20
2018-01-21T14:19:48.047Z,18.20
2018-01-21T14:22:15.918Z,18.50
2018-01-21T14:24:43.886Z,18.80
2018-01-21T14:27:11.848Z,19.60
2018-01-21T14:29:39.715Z,19.40
2018-01-21T14:32:07.595Z,19.60
2018-01-21T14:34:35.552Z,19.60
2018-01-21T14:37:03.528Z,20.10
2018-01-21T14:39:31.597Z,20.10
2018-01-21T14:41:59.456Z,19.90
2018-01-21T14:44:27.323Z,20.10
2018-01-21T14:46:55.210Z,20.20
2018-01-21T14:49:24.022Z,21.10
2018-01-21T14:51:53.140Z,21.30
2018-01-21T14:54:21.258Z,21.30
2018-01-21T14:56:49.224Z,21.60
2018-01-21T14:59:17.154Z,22.00
2018-01-21T15:01:45.252Z,21.90
2018-01-21T15:04:13.533Z,21.80
2018-01-21T15:06:41.609Z,21.90
2018-01-21T15:09:12.138Z,22.30
2018-01-21T15:11:40.420Z,22.50
2018-01-21T15:14:08.488Z,22.60
2018-01-21T15:16:36.346Z,22.80
2018-01-21T15:19:05.245Z,22.70
2018-01-21T15:21:34.033Z,22.80
2018-01-21T15:24:01.894Z,22.70
2018-01-21T15:26:30.730Z,22.90
2018-01-21T15:29:02.012Z,22.90
2018-01-21T15:31:30.005Z,22.30
2018-01-21T15:33:57.972Z,21.90
2018-01-21T15:36:25.931Z,21.40
2018-01-21T15:38:53.806Z,20.80
2018-01-21T15:41:21.675Z,20.20
2018-01-21T15:43:49.643Z,20.30
2018-01-21T15:46:17.611Z,20.70
2018-01-21T15:48:45.487Z,20.90
2018-01-21T15:51:13.340Z,21.50
2018-01-21T15:53:41.280Z,22.20
2018-01-21T15:56:09.183Z,22.40
2018-01-21T15:58:37.037Z,22.20
2018-01-21T16:01:04.907Z,22.30
2018-01-21T16:03:32.771Z,22.70
2018-01-21T16:06:00.751Z,22.90
2018-01-21T16:08:28.818Z,23.00
2018-01-21T16:10:56.793Z,23.10
2018-01-21T16:13:24.658Z,23.10
2018-01-21T16:15:52.513Z,23.20
2018-01-21T16:18:21.108Z,23.00
2018-01-21T16:20:48.961Z,23.10
2018-01-21T16:23:18.713Z,23.10
2018-01-21T16:25:47.153Z,23.10
2018-01-21T16:28:16.337Z,23.20
2018-01-21T16:30:45.941Z,23.20
2018-01-21T16:33:14.702Z,23.20
2018-01-21T16:35:45.463Z,23.20
2018-01-21T16:38:26.888Z,23.20
2018-01-21T16:40:55.577Z,23.10
2018-01-21T16:43:25.108Z,23.10
2018-01-21T16:45:53.227Z,23.00
2018-01-21T16:48:22.024Z,23.00
2018-01-21T16:50:51.900Z,23.00
2018-01-21T16:53:20.451Z,23.10
2018-01-21T16:55:50.628Z,23.20
2018-01-21T16:58:19.639Z,23.20
2018-01-21T17:00:48.426Z,23.20
2018-01-21T17:03:18.058Z,23.10
2018-01-21T17:05:46.705Z,23.20
2018-01-21T17:08:14.646Z,23.20
2018-01-21T17:10:43.632Z,23.30
2018-01-21T17:13:12.745Z,23.40
2018-01-21T17:15:43.462Z,23.30
2018-01-21T17:18:12.739Z,23.20
2018-01-21T17:20:41.589Z,23.00
2018-01-21T17:23:09.556Z,23.00
2018-01-21T17:25:37.430Z,23.10
2018-01-21T17:28:05.299Z,23.20
2018-01-21T17:30:33.266Z,23.20
2018-01-21T17:33:01.340Z,23.20
2018-01-21T17:35:29.198Z,23.00
2018-01-21T17:51:39.959Z,23.70
2018-01-21T17:54:07.820Z,23.60
2018-01-21T17:56:36.618Z,23.30
2018-01-21T17:59:04.578Z,23.30
2018-01-21T18:01:32.448Z,22.50
2018-01-21T18:48:29.696Z,21.40
2018-01-21T18:50:58.358Z,21.30
2018-01-21T18:53:26.357Z,20.00
2018-01-21T18:55:54.679Z,20.90
2018-01-21T18:58:22.590Z,21.90
2018-01-21T19:00:50.572Z,22.70
2018-01-21T19:03:19.254Z,23.30
2018-01-21T19:05:47.223Z,23.20
2018-01-21T19:08:15.295Z,23.20
2018-01-21T19:10:43.260Z,23.10
2018-01-21T19:13:11.227Z,23.00
2018-01-21T19:15:39.095Z,22.90
2018-01-21T19:18:06.954Z,22.90
2018-01-21T19:20:35.946Z,22.90
2018-01-21T19:23:04.061Z,22.90
2018-01-21T19:25:32.098Z,22.90
2018-01-21T19:28:00.071Z,22.80
2018-01-21T19:30:28.038Z,22.70
2018-01-21T19:32:56.309Z,22.50
2018-01-21T19:35:24.178Z,22.70
2018-01-21T19:37:53.438Z,22.60
2018-01-21T19:40:25.125Z,22.30
2018-01-21T19:42:58.626Z,22.30
2018-01-21T19:45:26.742Z,22.30
2018-01-21T19:47:54.672Z,22.20
2018-01-21T19:50:24.106Z,22.40
2018-01-21T19:52:54.545Z,22.50
2018-01-21T19:55:23.288Z,22.40
2018-01-21T19:57:55.151Z,22.30
2018-01-21T20:00:25.953Z,22.30
2018-01-21T20:02:57.420Z,22.30
2018-01-21T20:05:27.804Z,22.40
2018-01-21T20:08:01.146Z,22.50
2018-01-21T20:10:34.481Z,22.50
2018-01-21T20:13:09.832Z,22.50
2018-01-21T20:15:41.076Z,22.50
2018-01-21T20:18:14.860Z,22.60
2018-01-21T20:20:46.675Z,22.60
2018-01-21T20:23:19.203Z,22.60
2018-01-21T20:25:52.649Z,22.60
2018-01-21T20:28:24.168Z,22.60
2018-01-21T20:30:56.379Z,22.60
2018-01-21T20:33:29.446Z,22.70
2018-01-21T20:36:02.284Z,22.80
2018-01-21T20:38:35.319Z,22.70
2018-01-21T20:41:07.154Z,22.70
2018-01-21T20:43:39.893Z,22.70
2018-01-21T20:46:10.900Z,22.80
2018-01-21T20:48:42.925Z,22.90
2018-01-21T20:51:17.209Z,22.90
2018-01-21T20:53:50.715Z,22.90
2018-01-21T20:56:19.804Z,23.00
2018-01-21T20:58:50.237Z,23.10
2018-01-21T21:01:20.136Z,23.20
2018-01-21T21:03:51.659Z,23.10
2018-01-21T21:06:23.348Z,23.10
2018-01-21T21:08:51.839Z,23.00
2018-01-21T21:11:21.140Z,23.00
2018-01-21T21:13:49.727Z,23.00
2018-01-21T21:16:17.633Z,23.10
2018-01-21T21:18:45.666Z,23.00
2018-01-21T21:21:13.523Z,23.00
2018-01-21T21:23:41.496Z,23.10
2018-01-21T21:26:09.354Z,23.00
2018-01-21T21:28:37.223Z,23.00
2018-01-21T21:31:08.699Z,23.00
2018-01-21T21:33:36.847Z,22.90
2018-01-21T21:36:04.721Z,22.90
2018-01-21T21:38:32.579Z,22.90
2018-01-21T21:41:00.461Z,22.90
2018-01-21T21:43:29.141Z,22.80
2018-01-21T21:45:57.207Z,22.80
2018-01-21T21:48:25.079Z,22.80
2018-01-21T21:50:53.560Z,22.80
2018-01-21T21:53:21.523Z,22.70
2018-01-21T21:55:49.808Z,22.70
2018-01-21T21:58:17.770Z,22.70
2018-01-21T22:00:45.847Z,22.70
2018-01-21T22:03:13.711Z,22.60
2018-01-21T22:05:41.570Z,22.60
2018-01-21T22:08:09.434Z,22.50
2018-01-21T22:10:37.413Z,22.50
2018-01-21T22:13:05.476Z,22.50
2018-01-21T22:15:33.451Z,22.50
2018-01-21T22:18:01.281Z,22.50
2018-01-21T22:20:29.289Z,22.40
2018-01-21T22:22:57.964Z,22.30
2018-01-21T22:25:26.043Z,22.30
2018-01-21T22:27:53.923Z,22.30
2018-01-21T22:30:21.882Z,22.20
2018-01-21T22:32:50.771Z,22.20
2018-01-21T22:35:18.629Z,22.10
2018-01-21T22:37:46.608Z,22.10
2018-01-21T22:40:14.683Z,22.00
2018-01-21T22:42:42.543Z,22.00
2018-01-21T22:45:10.516Z,22.00
2018-01-21T22:47:38.381Z,22.00
2018-01-21T22:50:06.253Z,21.90
2018-01-21T22:52:34.103Z,21.80
2018-01-21T22:55:01.970Z,21.80
2018-01-21T22:57:29.846Z,21.80
2018-01-21T22:59:57.709Z,21.70
2018-01-21T23:02:25.681Z,21.70
2018-01-21T23:04:54.570Z,21.60
2018-01-21T23:07:23.053Z,21.60
2018-01-21T23:09:51.738Z,21.60
2018-01-21T23:12:20.423Z,21.60
2018-01-21T23:14:48.399Z,21.50
2018-01-21T23:17:16.167Z,21.50
2018-01-21T23:19:44.036Z,21.40
2018-01-21T23:22:12.494Z,21.30
2018-01-21T23:24:40.289Z,21.30
2018-01-21T23:27:08.043Z,21.30
2018-01-21T23:29:35.879Z,21.30
2018-01-21T23:32:03.714Z,21.20
2018-01-21T23:34:31.479Z,21.20
2018-01-21T23:36:59.358Z,21.20
2018-01-21T23:39:27.174Z,21.20
2018-01-21T23:41:55.008Z,21.10
2018-01-21T23:44:22.809Z,21.00
2018-01-21T23:46:51.383Z,20.90
2018-01-21T23:49:19.172Z,20.90
2018-01-21T23:51:47.014Z,20.90
2018-01-21T23:54:15.608Z,20.90
2018-01-21T23:56:43.393Z,20.90
2018-01-21T23:59:11.304Z,20.90
